Terminal Aerodrome Forecast
Issued by NWS Shreveport, LA

Home | Current Version | Previous Version | Text Only | Print | Product List | Glossary On
Versions: 1 2 3 4 5 6 7 8 9 10 11 12 13 14 15
000
FTUS44 KSHV 042331
TAFLFK
TAF
KLFK 042331Z 0500/0524 13009KT P6SM SKC
     FM050100 13006KT P6SM SKC
     FM051000 13007KT 5SM BR OVC015
      TEMPO 0512/0514 OVC007
     FM051600 14010G18KT P6SM OVC025
     FM051800 14015G22KT P6SM VCTS BKN035CB=

USA.gov is the U.S. government's official web portal to all federal, state and local government web resources and services.